createdAt,value
2023-03-02T00:02:22.705Z,12.50
2023-03-02T00:04:52.053Z,12.17
2023-03-02T00:07:23.258Z,12.37
2023-03-02T00:09:51.157Z,12.27
2023-03-02T00:12:19.123Z,13.93
2023-03-02T00:14:47.079Z,12.13
2023-03-02T00:17:14.946Z,13.10
2023-03-02T00:19:42.819Z,12.80
2023-03-02T00:22:11.225Z,12.97
2023-03-02T00:24:40.722Z,11.83
2023-03-02T00:27:08.640Z,13.97
2023-03-02T00:29:36.600Z,13.83
2023-03-02T00:32:04.972Z,13.60
2023-03-02T00:34:33.212Z,12.90
2023-03-02T00:37:01.113Z,11.50
2023-03-02T00:39:29.037Z,12.57
2023-03-02T00:41:58.397Z,13.50
2023-03-02T00:44:26.273Z,12.67
2023-03-02T00:46:54.257Z,12.40
2023-03-02T00:49:22.293Z,13.70
2023-03-02T00:51:50.275Z,12.97
2023-03-02T00:54:18.236Z,12.60
2023-03-02T00:56:46.216Z,12.53
2023-03-02T00:59:26.769Z,12.77
2023-03-02T01:01:58.319Z,12.80
2023-03-02T01:04:31.092Z,12.53
2023-03-02T01:06:59.363Z,12.43
2023-03-02T01:09:27.997Z,12.17
2023-03-02T01:11:55.997Z,14.43
2023-03-02T01:14:25.839Z,12.90
2023-03-02T01:16:54.013Z,12.53
2023-03-02T01:19:21.966Z,14.63
2023-03-02T01:21:49.890Z,14.07
2023-03-02T01:24:17.843Z,13.10
2023-03-02T01:26:45.756Z,12.80
2023-03-02T01:29:13.626Z,13.73
2023-03-02T01:31:43.101Z,12.70
2023-03-02T01:34:11.054Z,14.17
2023-03-02T01:36:39.147Z,13.73
2023-03-02T01:39:07.116Z,13.63
2023-03-02T01:41:35.077Z,13.80
2023-03-02T01:44:02.949Z,14.77
2023-03-02T01:46:32.765Z,13.60
2023-03-02T01:49:03.440Z,12.67
2023-03-02T01:51:33.391Z,14.03
2023-03-02T01:54:03.244Z,12.87
2023-03-02T01:56:34.783Z,13.53
2023-03-02T01:59:10.455Z,12.80
2023-03-02T02:01:39.463Z,12.77
2023-03-02T02:04:08.977Z,14.63
2023-03-02T02:06:39.300Z,14.03
2023-03-02T02:09:09.644Z,13.23
2023-03-02T02:11:37.726Z,12.90
2023-03-02T02:14:05.596Z,13.63
2023-03-02T02:16:34.819Z,13.93
2023-03-02T02:19:04.194Z,13.27
2023-03-02T02:21:33.591Z,13.17
2023-03-02T02:24:06.503Z,12.93
2023-03-02T02:26:38.353Z,13.50
2023-03-02T02:29:08.139Z,13.13
2023-03-02T02:31:37.567Z,14.40
2023-03-02T02:34:08.512Z,12.87
2023-03-02T02:36:39.109Z,12.90
2023-03-02T02:39:08.448Z,14.73
2023-03-02T02:41:39.965Z,13.17
2023-03-02T02:44:08.270Z,13.17
2023-03-02T02:46:36.448Z,13.80
2023-03-02T02:49:05.057Z,13.33
2023-03-02T02:51:33.782Z,13.60
2023-03-02T02:54:02.635Z,14.07
2023-03-02T02:56:32.078Z,14.10
2023-03-02T02:59:03.477Z,13.70
2023-03-02T03:01:31.442Z,13.73
2023-03-02T03:04:02.193Z,14.87
2023-03-02T03:06:38.305Z,13.57
2023-03-02T03:09:06.709Z,14.47
2023-03-02T03:11:36.222Z,14.40
2023-03-02T03:14:09.840Z,13.77
2023-03-02T03:16:38.936Z,14.30
2023-03-02T03:19:09.392Z,14.60
2023-03-02T03:21:37.490Z,14.53
2023-03-02T03:24:05.716Z,14.37
2023-03-02T03:26:33.908Z,13.73
2023-03-02T03:29:02.949Z,14.63
2023-03-02T03:31:32.288Z,13.67
2023-03-02T03:34:00.715Z,15.53
2023-03-02T03:36:29.571Z,14.50
2023-03-02T03:38:57.649Z,14.53
2023-03-02T03:41:25.895Z,13.67
2023-03-02T03:43:53.837Z,13.77
2023-03-02T03:46:21.837Z,13.83
2023-03-02T03:48:52.185Z,14.80
2023-03-02T03:51:20.089Z,14.23
2023-03-02T03:54:00.151Z,13.87
2023-03-02T03:56:28.610Z,13.37
2023-03-02T03:59:07.061Z,14.07
2023-03-02T04:01:36.254Z,14.07
2023-03-02T04:04:06.795Z,14.10
2023-03-02T04:06:35.018Z,15.57
2023-03-02T04:09:05.153Z,14.33
2023-03-02T04:11:33.182Z,14.03
2023-03-02T04:14:01.066Z,14.23
2023-03-02T04:16:29.372Z,13.13
2023-03-02T04:18:57.341Z,13.77
2023-03-02T04:21:26.781Z,16.43
2023-03-02T04:23:54.775Z,13.20
2023-03-02T04:26:22.661Z,11.70
2023-03-02T04:28:51.186Z,13.27
2023-03-02T04:31:19.169Z,13.87
2023-03-02T04:33:47.172Z,14.73
2023-03-02T04:36:15.115Z,13.90
2023-03-02T04:38:44.398Z,14.27
2023-03-02T04:41:12.313Z,14.70
2023-03-02T04:43:40.290Z,14.30
2023-03-02T04:46:08.262Z,13.13
2023-03-02T04:48:36.693Z,13.87
2023-03-02T04:51:04.772Z,15.47
2023-03-02T04:53:32.679Z,14.70
2023-03-02T04:56:02.554Z,13.93
2023-03-02T04:58:30.533Z,13.83
2023-03-02T05:01:02.331Z,12.90
2023-03-02T05:03:30.512Z,15.00
2023-03-02T05:05:58.590Z,14.67
2023-03-02T05:08:28.283Z,13.83
2023-03-02T05:10:58.678Z,14.63
2023-03-02T05:13:29.151Z,15.73
2023-03-02T05:15:58.691Z,14.60
2023-03-02T05:18:27.226Z,13.97
2023-03-02T05:20:56.267Z,12.87
2023-03-02T05:23:28.804Z,14.17
2023-03-02T05:25:57.287Z,14.30
2023-03-02T05:28:26.757Z,13.93
2023-03-02T05:30:56.129Z,13.90
2023-03-02T05:33:24.138Z,14.10
2023-03-02T05:35:52.052Z,14.20
2023-03-02T05:38:21.237Z,14.83
2023-03-02T05:40:49.940Z,13.57
2023-03-02T05:43:18.835Z,15.07
2023-03-02T05:45:46.907Z,15.23
2023-03-02T05:48:16.407Z,15.13
2023-03-02T05:50:44.344Z,14.30
2023-03-02T05:53:12.292Z,14.33
2023-03-02T05:55:40.195Z,14.00
2023-03-02T05:58:09.216Z,14.53
2023-03-02T06:00:37.285Z,14.80
2023-03-02T06:03:05.570Z,14.47
2023-03-02T06:05:34.961Z,15.63
2023-03-02T06:08:02.901Z,15.47
2023-03-02T06:10:30.802Z,14.57
2023-03-02T06:12:58.885Z,14.97
2023-03-02T06:15:29.917Z,14.73
2023-03-02T06:17:57.890Z,15.07
2023-03-02T06:20:25.879Z,14.03
2023-03-02T06:22:55.167Z,14.60
2023-03-02T06:25:24.154Z,14.37
2023-03-02T06:27:53.833Z,13.70
2023-03-02T06:30:22.827Z,15.97
2023-03-02T06:32:50.900Z,13.00
2023-03-02T06:35:19.106Z,14.83
2023-03-02T06:37:47.064Z,15.60
2023-03-02T06:40:16.449Z,14.13
2023-03-02T06:42:44.482Z,15.10
2023-03-02T06:45:12.787Z,15.37
2023-03-02T06:47:40.726Z,15.13
2023-03-02T06:50:09.269Z,14.20
2023-03-02T06:52:37.196Z,15.13
2023-03-02T06:55:05.380Z,14.97
2023-03-02T06:57:34.907Z,14.83
2023-03-02T07:00:07.666Z,16.13
2023-03-02T07:02:35.569Z,14.37
2023-03-02T07:05:03.541Z,15.77
2023-03-02T07:07:31.476Z,14.83
2023-03-02T07:09:59.412Z,21.67
2023-03-02T07:12:27.284Z,15.90
2023-03-02T07:14:56.720Z,15.20
2023-03-02T07:17:24.740Z,15.53
2023-03-02T07:19:52.661Z,16.13
2023-03-02T07:22:20.632Z,14.93
2023-03-02T07:24:48.587Z,14.00
2023-03-02T07:27:16.474Z,16.47
2023-03-02T07:29:44.427Z,15.97
2023-03-02T07:32:13.757Z,18.93
2023-03-02T07:34:41.851Z,14.83
2023-03-02T07:37:09.754Z,16.40
2023-03-02T07:39:37.694Z,15.43
2023-03-02T07:42:09.076Z,15.03
2023-03-02T07:44:37.004Z,14.90
2023-03-02T07:47:04.963Z,14.33
2023-03-02T07:49:35.506Z,16.13
2023-03-02T07:52:03.455Z,16.10
2023-03-02T07:54:31.373Z,16.87
2023-03-02T07:56:59.762Z,15.60
2023-03-02T07:59:28.526Z,15.43
2023-03-02T08:01:57.122Z,15.23
2023-03-02T08:04:25.485Z,14.60
2023-03-02T08:06:54.777Z,13.80
2023-03-02T08:09:22.702Z,15.77
2023-03-02T08:11:50.604Z,16.73
2023-03-02T08:14:18.605Z,15.00
2023-03-02T08:16:46.570Z,15.67
2023-03-02T08:19:14.517Z,16.30
2023-03-02T08:21:42.619Z,16.10
2023-03-02T08:24:12.480Z,16.60
2023-03-02T08:26:40.499Z,16.63
2023-03-02T08:29:08.771Z,17.83
2023-03-02T08:31:36.979Z,15.83
2023-03-02T08:34:05.034Z,15.43
2023-03-02T08:36:33.166Z,16.60
2023-03-02T08:39:01.319Z,15.73
2023-03-02T08:41:31.017Z,16.40
2023-03-02T08:43:59.095Z,16.47
2023-03-02T08:46:26.991Z,16.03
2023-03-02T08:48:54.963Z,14.97
2023-03-02T08:51:24.116Z,17.20
2023-03-02T08:53:53.465Z,17.40
2023-03-02T08:56:26.746Z,16.30
2023-03-02T08:58:57.357Z,17.73
2023-03-02T09:01:26.240Z,16.57
2023-03-02T09:03:54.196Z,17.67
2023-03-02T09:06:22.230Z,17.27
2023-03-02T09:08:50.448Z,16.27
2023-03-02T09:11:20.999Z,17.17
2023-03-02T09:13:49.224Z,16.67
2023-03-02T09:16:20.395Z,17.10
2023-03-02T09:18:48.826Z,16.13
2023-03-02T09:21:17.058Z,16.93
2023-03-02T09:23:44.997Z,17.17
2023-03-02T09:26:13.024Z,16.50
2023-03-02T09:28:40.920Z,18.10
2023-03-02T09:31:09.606Z,16.67
2023-03-02T09:33:39.015Z,17.20
2023-03-02T09:36:08.020Z,18.40
2023-03-02T09:38:36.142Z,18.27
2023-03-02T09:41:23.630Z,17.03
2023-03-02T09:43:55.014Z,21.67
2023-03-02T09:46:24.471Z,17.93
2023-03-02T09:49:04.833Z,17.13
2023-03-02T09:51:34.695Z,18.87
2023-03-02T09:54:05.311Z,17.83
2023-03-02T09:56:35.669Z,19.10
2023-03-02T09:59:06.536Z,18.23
2023-03-02T10:01:37.931Z,18.00
2023-03-02T10:04:11.176Z,18.80
2023-03-02T10:06:39.146Z,17.80
2023-03-02T10:09:07.167Z,18.23
2023-03-02T10:11:40.548Z,17.10
2023-03-02T10:14:12.187Z,17.37
2023-03-02T10:16:46.272Z,20.23
2023-03-02T10:19:18.911Z,18.33
2023-03-02T10:21:47.541Z,19.27
2023-03-02T10:24:19.364Z,18.73
2023-03-02T10:26:48.464Z,17.37
2023-03-02T10:29:28.449Z,19.30
2023-03-02T10:31:59.648Z,19.77
2023-03-02T10:34:30.512Z,17.97
2023-03-02T10:36:58.783Z,20.27
2023-03-02T10:39:26.767Z,18.07
2023-03-02T10:41:55.936Z,18.77
2023-03-02T10:44:26.923Z,18.13
2023-03-02T10:46:54.896Z,19.57
2023-03-02T10:49:28.194Z,18.53
2023-03-02T10:51:58.585Z,18.90
2023-03-02T10:54:28.374Z,17.67
2023-03-02T10:56:58.446Z,19.00
2023-03-02T10:59:43.820Z,19.37
2023-03-02T11:02:16.200Z,19.77
2023-03-02T11:04:44.414Z,19.00
2023-03-02T11:07:17.654Z,19.20
2023-03-02T11:09:45.727Z,17.90
2023-03-02T11:12:15.640Z,18.67
2023-03-02T11:14:43.894Z,18.77
2023-03-02T11:17:25.398Z,18.70
2023-03-02T11:19:53.434Z,16.97
2023-03-02T11:22:27.754Z,16.83
2023-03-02T11:24:57.452Z,18.20
2023-03-02T11:27:28.429Z,18.67
2023-03-02T11:29:58.564Z,18.17
2023-03-02T11:32:30.404Z,17.60
2023-03-02T11:34:59.906Z,17.53
2023-03-02T11:37:31.441Z,17.30
2023-03-02T11:40:05.935Z,19.27
2023-03-02T11:42:35.641Z,18.17
2023-03-02T11:45:05.304Z,18.20
2023-03-02T11:47:34.106Z,19.70
2023-03-02T11:50:05.362Z,17.03
2023-03-02T11:52:36.096Z,18.27
2023-03-02T11:55:06.077Z,17.57
2023-03-02T11:57:38.579Z,17.83
2023-03-02T12:00:13.523Z,17.63
2023-03-02T12:02:41.504Z,19.87
2023-03-02T12:05:23.623Z,19.30
2023-03-02T12:07:59.287Z,18.13
2023-03-02T12:10:28.809Z,20.37
2023-03-02T12:13:01.293Z,18.23
2023-03-02T12:15:30.555Z,17.43
2023-03-02T12:17:58.480Z,18.90
2023-03-02T12:20:27.834Z,18.10
2023-03-02T12:23:07.098Z,19.47
2023-03-02T12:25:41.048Z,19.37
2023-03-02T12:28:26.708Z,19.60
2023-03-02T12:30:58.304Z,17.73
2023-03-02T12:33:26.200Z,19.53
2023-03-02T12:36:04.715Z,19.33
2023-03-02T12:38:34.027Z,17.73
2023-03-02T12:41:23.520Z,18.37
2023-03-02T12:43:57.686Z,16.83
2023-03-02T12:46:27.733Z,17.53
2023-03-02T12:49:16.524Z,18.40
2023-03-02T12:51:54.933Z,18.40
2023-03-02T12:54:23.880Z,16.50
2023-03-02T12:57:02.865Z,17.73
2023-03-02T12:59:31.142Z,18.87
2023-03-02T13:02:05.810Z,18.27
2023-03-02T13:04:33.745Z,18.30
2023-03-02T13:07:01.633Z,16.93
2023-03-02T13:09:30.316Z,18.17
2023-03-02T13:11:59.841Z,17.13
2023-03-02T13:14:28.614Z,16.53
2023-03-02T13:16:58.121Z,16.60
2023-03-02T13:19:27.058Z,18.13
2023-03-02T13:21:55.045Z,18.23
2023-03-02T13:24:32.418Z,18.60
2023-03-02T13:27:05.853Z,18.10
2023-03-02T13:29:33.918Z,16.53
2023-03-02T13:32:15.449Z,18.57
2023-03-02T13:34:46.815Z,17.57
2023-03-02T13:37:20.972Z,17.70
2023-03-02T13:39:55.702Z,16.77
2023-03-02T13:42:29.685Z,18.77
2023-03-02T13:44:57.672Z,18.50
2023-03-02T13:47:26.224Z,17.50
2023-03-02T13:49:54.186Z,18.43
2023-03-02T13:52:25.308Z,19.07
2023-03-02T13:54:53.205Z,18.73
2023-03-02T13:57:24.240Z,18.30
2023-03-02T13:59:53.636Z,19.10
2023-03-02T14:02:24.274Z,17.43
2023-03-02T14:04:52.422Z,18.27
2023-03-02T14:07:20.909Z,18.53
2023-03-02T14:09:50.392Z,18.47
2023-03-02T14:12:26.821Z,18.40
2023-03-02T14:14:57.420Z,18.20
2023-03-02T14:17:26.163Z,18.13
2023-03-02T14:19:55.406Z,17.27
2023-03-02T14:22:23.904Z,17.90
2023-03-02T14:24:51.888Z,19.03
2023-03-02T14:27:20.229Z,18.13
2023-03-02T14:29:48.237Z,17.07
2023-03-02T14:32:17.597Z,18.17
2023-03-02T14:34:45.525Z,18.00
2023-03-02T14:37:14.996Z,18.43
2023-03-02T14:39:43.905Z,18.17
2023-03-02T14:42:13.264Z,19.17
2023-03-02T14:44:41.314Z,18.17
2023-03-02T14:47:10.478Z,18.00
2023-03-02T14:49:39.959Z,18.83
2023-03-02T14:52:08.969Z,17.40
2023-03-02T14:54:39.672Z,16.77
2023-03-02T14:57:14.625Z,17.93
2023-03-02T14:59:42.505Z,16.70
2023-03-02T15:02:24.447Z,18.17
2023-03-02T15:04:56.445Z,16.93
2023-03-02T15:07:25.293Z,18.10
2023-03-02T15:09:53.255Z,18.93
2023-03-02T15:12:23.544Z,17.87
2023-03-02T15:14:51.505Z,17.90
2023-03-02T15:17:19.696Z,19.63
2023-03-02T15:19:47.804Z,17.47
2023-03-02T15:22:17.168Z,17.90
2023-03-02T15:24:45.130Z,18.27
2023-03-02T15:27:13.034Z,17.63
2023-03-02T15:29:44.230Z,18.77
2023-03-02T15:32:12.222Z,18.37
2023-03-02T15:34:40.243Z,17.50
2023-03-02T15:37:08.838Z,18.87
2023-03-02T15:39:38.226Z,18.33
2023-03-02T15:42:06.398Z,18.17
2023-03-02T15:44:34.346Z,17.30
2023-03-02T15:47:02.429Z,19.00
2023-03-02T15:49:32.973Z,16.77
2023-03-02T15:52:00.955Z,18.50
2023-03-02T15:54:30.726Z,19.67
2023-03-02T15:57:00.137Z,18.27
2023-03-02T15:59:28.883Z,17.77
2023-03-02T16:01:59.615Z,17.90
2023-03-02T16:04:27.655Z,17.63
2023-03-02T16:06:56.476Z,18.17
2023-03-02T16:09:24.481Z,18.27
2023-03-02T16:11:52.743Z,17.80
2023-03-02T16:14:22.080Z,18.80
2023-03-02T16:16:50.098Z,18.33
2023-03-02T16:19:19.171Z,18.43
2023-03-02T16:21:47.375Z,18.13
2023-03-02T16:24:16.513Z,19.27
2023-03-02T16:26:44.993Z,19.40
2023-03-02T16:29:13.669Z,19.53
2023-03-02T16:31:43.564Z,19.13
2023-03-02T16:34:11.521Z,19.30
2023-03-02T16:36:40.420Z,18.13
2023-03-02T16:39:08.692Z,18.87
2023-03-02T16:41:37.105Z,20.10
2023-03-02T16:44:04.980Z,19.20
2023-03-02T16:46:36.442Z,19.77
2023-03-02T16:49:06.067Z,20.03
2023-03-02T16:51:34.242Z,18.33
2023-03-02T16:54:02.263Z,18.27
2023-03-02T16:56:30.345Z,19.30
2023-03-02T16:58:59.994Z,18.90
2023-03-02T17:01:28.259Z,19.57
2023-03-02T17:03:56.394Z,20.67
2023-03-02T17:06:25.892Z,19.63
2023-03-02T17:08:55.055Z,19.53
2023-03-02T17:11:23.355Z,18.63
2023-03-02T17:13:51.387Z,20.23
2023-03-02T17:16:27.348Z,19.20
2023-03-02T17:18:55.670Z,19.40
2023-03-02T17:21:24.859Z,18.47
2023-03-02T17:23:54.449Z,19.20
2023-03-02T17:26:22.625Z,19.73
2023-03-02T17:28:53.353Z,18.60
2023-03-02T17:31:24.056Z,19.80
2023-03-02T17:33:52.058Z,19.50
2023-03-02T17:36:20.083Z,19.43
2023-03-02T17:38:48.006Z,19.40
2023-03-02T17:41:17.367Z,19.23
2023-03-02T17:43:45.366Z,20.07
2023-03-02T17:46:14.832Z,19.47
2023-03-02T17:48:43.313Z,18.67
2023-03-02T17:51:11.965Z,18.90
2023-03-02T17:53:40.107Z,18.03
2023-03-02T17:56:08.482Z,20.27
2023-03-02T17:58:44.651Z,20.93
2023-03-02T18:01:13.654Z,17.37
2023-03-02T18:03:41.692Z,19.40
2023-03-02T18:06:09.755Z,19.30
2023-03-02T18:08:38.223Z,21.10
2023-03-02T18:11:06.510Z,22.10
2023-03-02T18:13:34.476Z,20.03
2023-03-02T18:16:03.874Z,21.97
2023-03-02T18:18:31.883Z,22.73
2023-03-02T18:20:59.924Z,21.23
2023-03-02T18:23:27.937Z,20.53
2023-03-02T18:25:55.866Z,19.20
2023-03-02T18:28:24.140Z,21.53
2023-03-02T18:30:52.048Z,20.77
2023-03-02T18:33:21.448Z,19.93
2023-03-02T18:35:52.745Z,20.60
2023-03-02T18:38:20.783Z,19.67
2023-03-02T18:40:48.707Z,21.13
2023-03-02T18:43:16.688Z,21.23
2023-03-02T18:45:44.746Z,19.20
2023-03-02T18:48:12.709Z,20.10
2023-03-02T18:50:42.641Z,20.70
2023-03-02T18:53:12.891Z,21.10
2023-03-02T18:55:41.539Z,20.60
2023-03-02T18:58:09.834Z,20.20
2023-03-02T19:00:38.095Z,20.97
2023-03-02T19:03:06.058Z,21.33
2023-03-02T19:05:33.990Z,20.60
2023-03-02T19:08:04.786Z,20.67
2023-03-02T19:10:32.673Z,21.10
2023-03-02T19:13:00.660Z,21.20
2023-03-02T19:15:28.662Z,20.53
2023-03-02T19:17:57.336Z,19.77
2023-03-02T19:20:27.305Z,19.93
2023-03-02T19:22:55.255Z,21.23
2023-03-02T19:25:24.651Z,20.70
2023-03-02T19:27:52.570Z,21.00
2023-03-02T19:30:21.814Z,20.57
2023-03-02T19:32:49.990Z,20.73
2023-03-02T19:35:18.888Z,20.90
2023-03-02T19:37:46.909Z,21.60
2023-03-02T19:40:17.888Z,22.07
2023-03-02T19:42:47.599Z,22.93
2023-03-02T19:45:17.103Z,20.90
2023-03-02T19:47:45.175Z,21.87
2023-03-02T19:50:13.577Z,21.83
2023-03-02T19:52:42.174Z,21.73
2023-03-02T19:55:13.600Z,20.80
2023-03-02T19:57:42.855Z,22.13
2023-03-02T20:00:15.321Z,19.93
2023-03-02T20:02:43.306Z,21.93
2023-03-02T20:05:11.618Z,20.63
2023-03-02T20:07:41.661Z,20.60
2023-03-02T20:10:10.633Z,20.57
2023-03-02T20:12:38.857Z,21.17
2023-03-02T20:15:07.455Z,20.77
2023-03-02T20:17:36.752Z,20.50
2023-03-02T20:20:05.743Z,22.10
2023-03-02T20:22:33.657Z,20.97
2023-03-02T20:25:01.517Z,22.77
2023-03-02T20:27:29.502Z,22.87
2023-03-02T20:29:57.569Z,20.73
2023-03-02T20:32:25.643Z,21.27
2023-03-02T20:34:55.057Z,21.00
2023-03-02T20:37:25.996Z,21.10
2023-03-02T20:39:53.932Z,21.67
2023-03-02T20:42:22.181Z,21.37
2023-03-02T20:44:50.172Z,21.00
2023-03-02T20:47:18.167Z,20.57
2023-03-02T20:49:46.110Z,21.30
2023-03-02T20:52:15.640Z,22.00
2023-03-02T20:54:43.986Z,21.93
2023-03-02T20:57:14.820Z,22.57
2023-03-02T20:59:45.175Z,22.83
2023-03-02T21:02:14.137Z,21.53
2023-03-02T21:04:42.736Z,22.87
2023-03-02T21:07:10.836Z,21.00
2023-03-02T21:09:40.367Z,20.63
2023-03-02T21:12:08.913Z,21.30
2023-03-02T21:14:36.928Z,21.03
2023-03-02T21:17:05.290Z,21.47
2023-03-02T21:19:34.294Z,20.63
2023-03-02T21:22:02.228Z,20.53
2023-03-02T21:24:30.152Z,21.80
2023-03-02T21:27:00.459Z,20.90
2023-03-02T21:29:28.408Z,20.83
2023-03-02T21:31:56.434Z,20.83
2023-03-02T21:34:24.420Z,20.40
2023-03-02T21:36:53.897Z,20.60
2023-03-02T21:39:23.728Z,19.90
2023-03-02T21:41:51.780Z,21.20
2023-03-02T21:44:21.412Z,20.00
2023-03-02T21:46:49.667Z,19.13
2023-03-02T21:49:18.330Z,18.67
2023-03-02T21:51:48.827Z,19.07
2023-03-02T21:54:18.057Z,20.30
2023-03-02T21:56:45.960Z,21.47
2023-03-02T21:59:13.978Z,19.60
2023-03-02T22:01:44.171Z,18.53
2023-03-02T22:04:12.197Z,19.80
2023-03-02T22:06:40.094Z,20.80
2023-03-02T22:09:08.097Z,19.60
2023-03-02T22:11:37.328Z,19.97
2023-03-02T22:14:11.419Z,19.23
2023-03-02T22:16:40.473Z,18.40
2023-03-02T22:19:21.362Z,18.37
2023-03-02T22:21:53.013Z,18.30
2023-03-02T22:24:29.026Z,17.83
2023-03-02T22:26:59.371Z,17.63
2023-03-02T22:29:28.198Z,18.07
2023-03-02T22:31:57.142Z,20.27
2023-03-02T22:34:27.440Z,18.20
2023-03-02T22:37:02.702Z,19.07
2023-03-02T22:39:32.351Z,18.13
2023-03-02T22:42:01.791Z,19.13
2023-03-02T22:44:32.551Z,19.73
2023-03-02T22:47:01.264Z,20.10
2023-03-02T22:49:30.965Z,19.83
2023-03-02T22:52:01.833Z,19.57
2023-03-02T22:54:32.492Z,18.60
2023-03-02T22:57:00.416Z,18.77
2023-03-02T22:59:28.728Z,18.60
2023-03-02T23:01:59.690Z,18.90
2023-03-02T23:04:28.152Z,19.10
2023-03-02T23:07:00.170Z,19.00
2023-03-02T23:09:29.064Z,19.13
2023-03-02T23:11:58.325Z,18.60
2023-03-02T23:14:27.469Z,19.97
2023-03-02T23:16:58.290Z,18.30
2023-03-02T23:19:26.891Z,19.80
2023-03-02T23:21:55.372Z,19.27
2023-03-02T23:24:24.760Z,20.50
2023-03-02T23:26:53.493Z,18.10
2023-03-02T23:29:21.792Z,18.17
2023-03-02T23:31:49.771Z,16.73
2023-03-02T23:34:17.710Z,17.20
2023-03-02T23:36:45.611Z,18.53
2023-03-02T23:39:13.719Z,18.03
2023-03-02T23:41:43.091Z,17.43
2023-03-02T23:44:11.053Z,18.23
2023-03-02T23:46:39.199Z,17.40
2023-03-02T23:49:07.161Z,19.23
2023-03-02T23:51:35.312Z,17.77
2023-03-02T23:54:04.746Z,18.57
2023-03-02T23:56:32.903Z,18.03
2023-03-02T23:59:02.283Z,16.87
